createdAt,value
2023-04-04T00:02:01.242Z,9.23
2023-04-04T00:04:28.319Z,9.20
2023-04-04T00:06:55.443Z,10.20
2023-04-04T00:09:22.383Z,8.55
2023-04-04T00:11:49.160Z,9.77
2023-04-04T00:14:16.008Z,14.18
2023-04-04T00:16:42.742Z,9.38
2023-04-04T00:19:11.800Z,9.15
2023-04-04T00:21:38.647Z,8.40
2023-04-04T00:24:05.801Z,8.57
2023-04-04T00:26:34.268Z,9.45
2023-04-04T00:29:01.438Z,8.52
2023-04-04T00:31:28.282Z,8.82
2023-04-04T00:33:55.062Z,8.02
2023-04-04T00:36:22.232Z,8.38
2023-04-04T00:38:48.952Z,11.18
2023-04-04T00:41:16.676Z,8.52
2023-04-04T00:43:43.506Z,8.25
2023-04-04T00:46:15.168Z,8.25
2023-04-04T00:48:42.410Z,8.15
2023-04-04T00:51:09.423Z,9.18
2023-04-04T00:53:36.197Z,8.77
2023-04-04T00:56:02.972Z,9.35
2023-04-04T00:58:29.831Z,8.70
2023-04-04T01:00:56.782Z,8.38
2023-04-04T01:03:23.739Z,9.13
2023-04-04T01:05:50.670Z,8.60
2023-04-04T01:08:21.588Z,7.95
2023-04-04T01:10:48.513Z,9.00
2023-04-04T01:13:15.840Z,9.68
2023-04-04T01:15:43.108Z,8.80
2023-04-04T01:18:10.042Z,8.75
2023-04-04T01:20:39.096Z,9.02
2023-04-04T01:23:06.166Z,9.13
2023-04-04T01:25:34.039Z,9.32
2023-04-04T01:28:01.364Z,9.63
2023-04-04T01:30:29.449Z,8.48
2023-04-04T01:33:01.878Z,8.10
2023-04-04T01:35:39.590Z,8.52
2023-04-04T01:38:08.565Z,8.85
2023-04-04T01:40:35.762Z,8.70
2023-04-04T01:43:02.569Z,8.43
2023-04-04T01:45:30.060Z,9.27
2023-04-04T01:47:59.703Z,8.48
2023-04-04T01:50:27.226Z,8.15
2023-04-04T01:52:54.366Z,9.52
2023-04-04T01:55:21.920Z,9.82
2023-04-04T01:57:48.773Z,9.30
2023-04-04T02:00:16.851Z,9.07
2023-04-04T02:02:43.779Z,8.18
2023-04-04T02:05:10.621Z,10.02
2023-04-04T02:07:37.457Z,10.15
2023-04-04T02:10:04.698Z,9.20
2023-04-04T02:12:31.401Z,9.60
2023-04-04T02:14:58.330Z,9.05
2023-04-04T02:17:28.457Z,9.63
2023-04-04T02:19:55.549Z,9.32
2023-04-04T02:22:22.505Z,9.80
2023-04-04T02:24:49.307Z,9.52
2023-04-04T02:27:16.319Z,9.98
2023-04-04T02:29:46.104Z,9.90
2023-04-04T02:34:39.799Z,9.50
2023-04-04T02:37:06.773Z,9.90
2023-04-04T02:39:33.526Z,9.23
2023-04-04T02:42:00.247Z,9.23
2023-04-04T02:44:27.051Z,9.98
2023-04-04T02:46:53.897Z,9.18
2023-04-04T02:49:20.684Z,9.07
2023-04-04T02:51:47.955Z,8.93
2023-04-04T02:54:14.757Z,10.25
2023-04-04T02:56:41.526Z,10.07
2023-04-04T02:59:08.710Z,9.70
2023-04-04T03:01:35.818Z,9.43
2023-04-04T03:04:04.543Z,9.57
2023-04-04T03:06:34.976Z,10.13
2023-04-04T03:09:02.505Z,9.85
2023-04-04T03:11:29.228Z,10.48
2023-04-04T03:13:56.399Z,9.95
2023-04-04T03:16:23.608Z,9.70
2023-04-04T03:18:50.630Z,9.55
2023-04-04T03:21:17.543Z,9.70
2023-04-04T03:23:44.353Z,10.38
2023-04-04T03:26:11.248Z,10.05
2023-04-04T03:28:38.623Z,9.38
2023-04-04T03:31:06.426Z,10.25
2023-04-04T03:33:37.058Z,10.85
2023-04-04T03:36:11.183Z,11.23
2023-04-04T03:38:38.103Z,11.25
2023-04-04T03:41:05.299Z,11.25
2023-04-04T03:43:32.771Z,10.63
2023-04-04T03:46:03.326Z,10.52
2023-04-04T03:48:30.275Z,11.20
2023-04-04T03:50:58.057Z,10.85
2023-04-04T03:53:25.406Z,9.70
2023-04-04T03:55:52.799Z,10.70
2023-04-04T03:58:19.940Z,10.73
2023-04-04T04:00:46.759Z,10.27
2023-04-04T04:03:15.489Z,11.38
2023-04-04T04:05:43.807Z,11.27
2023-04-04T04:08:10.893Z,10.98
2023-04-04T04:10:37.704Z,10.48
2023-04-04T04:13:04.530Z,11.15
2023-04-04T04:15:31.444Z,10.75
2023-04-04T04:17:58.251Z,11.00
2023-04-04T04:20:25.136Z,11.30
2023-04-04T04:22:54.189Z,11.85
2023-04-04T04:25:21.317Z,11.98
2023-04-04T04:27:48.336Z,12.52
2023-04-04T04:30:15.238Z,11.48
2023-04-04T04:32:42.075Z,11.98
2023-04-04T04:35:10.122Z,11.77
2023-04-04T04:37:36.838Z,11.75
2023-04-04T04:40:03.734Z,12.82
2023-04-04T04:42:30.878Z,11.85
2023-04-04T04:44:57.707Z,13.20
2023-04-04T04:47:24.672Z,13.30
2023-04-04T04:49:51.698Z,12.73
2023-04-04T04:52:19.386Z,13.27
2023-04-04T04:54:46.180Z,14.02
2023-04-04T04:57:13.119Z,11.93
2023-04-04T04:59:52.974Z,13.18
2023-04-04T05:04:46.640Z,13.65
2023-04-04T05:07:13.534Z,12.40
2023-04-04T05:09:40.467Z,13.38
2023-04-04T05:12:07.991Z,13.77
2023-04-04T05:14:34.737Z,13.35
2023-04-04T05:17:01.754Z,14.38
2023-04-04T05:19:28.565Z,12.88
2023-04-04T05:21:55.349Z,12.43
2023-04-04T05:24:23.721Z,13.60
2023-04-04T05:26:50.730Z,13.23
2023-04-04T05:29:17.452Z,12.82
2023-04-04T05:31:44.334Z,12.43
2023-04-04T05:34:11.384Z,13.70
2023-04-04T05:36:38.265Z,13.18
2023-04-04T05:39:05.120Z,13.63
2023-04-04T05:41:32.419Z,13.90
2023-04-04T05:43:59.406Z,14.30
2023-04-04T05:46:26.432Z,15.00
2023-04-04T05:48:53.300Z,14.70
2023-04-04T05:51:20.096Z,14.85
2023-04-04T05:53:47.798Z,16.75
2023-04-04T05:56:14.723Z,14.93
2023-04-04T05:58:42.948Z,14.85
2023-04-04T06:01:09.780Z,14.85
2023-04-04T06:03:36.865Z,14.48
2023-04-04T06:06:04.836Z,14.98
2023-04-04T06:08:35.378Z,15.90
2023-04-04T06:11:07.335Z,14.75
2023-04-04T06:13:34.114Z,15.90
2023-04-04T06:16:01.484Z,15.45
2023-04-04T06:18:28.565Z,15.93
2023-04-04T06:20:55.840Z,15.57
2023-04-04T06:23:22.614Z,17.20
2023-04-04T06:25:49.523Z,14.73
2023-04-04T06:28:18.146Z,18.35
2023-04-04T06:30:45.261Z,16.35
2023-04-04T06:33:12.162Z,16.33
2023-04-04T06:35:39.036Z,19.80
2023-04-04T06:38:06.037Z,17.55
2023-04-04T06:40:32.878Z,17.88
2023-04-04T06:42:59.667Z,30.63
2023-04-04T06:45:27.895Z,19.52
2023-04-04T06:47:55.212Z,16.73
2023-04-04T06:50:23.148Z,18.50
2023-04-04T06:52:50.111Z,19.83
2023-04-04T06:55:17.942Z,16.08
2023-04-04T06:57:44.703Z,17.10
2023-04-04T07:00:12.056Z,15.77
2023-04-04T07:02:39.121Z,14.60
2023-04-04T07:05:06.824Z,15.30
2023-04-04T07:07:33.639Z,16.25
2023-04-04T07:10:00.653Z,14.35
2023-04-04T07:12:27.646Z,14.40
2023-04-04T07:14:54.402Z,13.48
2023-04-04T07:17:24.530Z,15.48
2023-04-04T07:19:52.128Z,13.00
2023-04-04T07:22:19.198Z,12.63
2023-04-04T07:24:45.967Z,14.05
2023-04-04T07:27:15.521Z,12.77
2023-04-04T07:29:42.643Z,9.48
2023-04-04T07:32:09.510Z,9.75
2023-04-04T07:34:36.725Z,12.52
2023-04-04T07:37:03.851Z,10.73
2023-04-04T07:39:31.469Z,10.95
2023-04-04T07:41:58.384Z,10.32
2023-04-04T07:44:25.118Z,10.85
2023-04-04T07:47:06.232Z,9.18
2023-04-04T07:49:33.768Z,9.98
2023-04-04T07:52:00.481Z,10.98
2023-04-04T07:54:27.406Z,10.10
2023-04-04T07:56:54.346Z,9.75
2023-04-04T07:59:21.713Z,9.60
2023-04-04T08:01:48.617Z,11.85
2023-04-04T08:04:15.787Z,13.38
2023-04-04T08:06:42.617Z,11.27
2023-04-04T08:09:09.723Z,13.32
2023-04-04T08:11:36.904Z,11.98
2023-04-04T08:14:03.921Z,12.80
2023-04-04T08:16:31.551Z,11.20
2023-04-04T08:19:00.111Z,12.90
2023-04-04T08:21:27.750Z,11.20
2023-04-04T08:23:54.795Z,12.05
2023-04-04T08:26:22.136Z,12.43
2023-04-04T08:28:49.188Z,11.75
2023-04-04T08:31:16.085Z,14.90
2023-04-04T08:33:47.399Z,12.07
2023-04-04T08:36:14.879Z,12.90
2023-04-04T08:38:41.752Z,12.18
2023-04-04T08:41:09.868Z,11.00
2023-04-04T08:43:38.193Z,11.68
2023-04-04T08:46:05.244Z,12.57
2023-04-04T08:48:34.737Z,11.63
2023-04-04T08:51:01.516Z,12.38
2023-04-04T08:53:29.552Z,12.70
2023-04-04T08:55:56.793Z,11.63
2023-04-04T08:58:23.876Z,12.35
2023-04-04T09:00:53.820Z,12.05
2023-04-04T09:03:26.510Z,11.48
2023-04-04T09:05:56.560Z,10.63
2023-04-04T09:08:26.262Z,11.43
2023-04-04T09:10:53.152Z,10.70
2023-04-04T09:13:20.055Z,10.68
2023-04-04T09:15:49.517Z,11.25
2023-04-04T09:18:16.955Z,12.00
2023-04-04T09:20:44.918Z,11.13
2023-04-04T09:23:20.644Z,12.00
2023-04-04T09:26:03.342Z,11.45
2023-04-04T09:28:31.424Z,10.80
2023-04-04T09:30:58.290Z,11.10
2023-04-04T09:33:25.073Z,10.75
2023-04-04T09:35:54.872Z,11.10
2023-04-04T09:38:23.528Z,11.10
2023-04-04T09:40:50.485Z,10.77
2023-04-04T09:43:18.201Z,10.98
2023-04-04T09:45:45.800Z,10.82
2023-04-04T09:48:12.965Z,12.40
2023-04-04T09:50:46.671Z,13.38
2023-04-04T09:53:18.046Z,13.25
2023-04-04T09:55:53.312Z,11.77
2023-04-04T09:58:24.750Z,11.27
2023-04-04T10:00:53.091Z,10.77
2023-04-04T10:03:20.849Z,11.10
2023-04-04T10:05:48.003Z,10.52
2023-04-04T10:08:18.668Z,10.93
2023-04-04T10:10:55.736Z,9.57
2023-04-04T10:13:31.046Z,9.80
2023-04-04T10:15:59.069Z,10.40
2023-04-04T10:18:27.505Z,10.13
2023-04-04T10:21:01.641Z,10.13
2023-04-04T10:23:36.227Z,10.40
2023-04-04T10:26:03.155Z,10.48
2023-04-04T10:28:29.983Z,10.45
2023-04-04T10:31:27.650Z,10.85
2023-04-04T10:33:56.759Z,10.63
2023-04-04T10:36:24.738Z,13.00
2023-04-04T10:39:25.282Z,10.20
2023-04-04T10:41:52.634Z,14.35
2023-04-04T10:44:39.283Z,13.30
2023-04-04T10:47:22.569Z,10.68
2023-04-04T10:49:51.590Z,11.35
2023-04-04T10:52:22.964Z,10.63
2023-04-04T10:54:54.649Z,11.45
2023-04-04T10:57:21.479Z,11.63
2023-04-04T11:00:06.802Z,10.32
2023-04-04T11:02:56.984Z,10.93
2023-04-04T11:05:51.270Z,10.07
2023-04-04T11:08:20.843Z,13.32
2023-04-04T11:10:48.652Z,12.45
2023-04-04T11:13:31.790Z,13.25
2023-04-04T11:16:05.339Z,9.73
2023-04-04T11:18:34.053Z,9.00
2023-04-04T11:21:05.699Z,10.00
2023-04-04T11:23:58.196Z,10.20
2023-04-04T11:26:28.102Z,9.82
2023-04-04T11:29:02.243Z,9.95
2023-04-04T11:31:29.837Z,12.02
2023-04-04T11:34:07.336Z,13.02
2023-04-04T11:36:37.176Z,11.05
2023-04-04T11:39:17.596Z,9.32
2023-04-04T11:41:54.153Z,9.60
2023-04-04T11:44:24.449Z,11.88
2023-04-04T11:47:02.634Z,10.82
2023-04-04T11:49:30.491Z,9.33
2023-04-04T11:51:57.516Z,8.68
2023-04-04T11:54:24.520Z,9.82
2023-04-04T11:56:51.364Z,8.93
2023-04-04T11:59:20.288Z,9.77
2023-04-04T12:01:47.215Z,9.50
2023-04-04T12:04:17.363Z,8.65
2023-04-04T12:06:44.419Z,10.27
2023-04-04T12:09:13.170Z,8.93
2023-04-04T12:11:40.449Z,11.40
2023-04-04T12:14:08.030Z,9.63
2023-04-04T12:16:36.025Z,9.50
2023-04-04T12:19:02.799Z,9.65
2023-04-04T12:21:32.883Z,11.80
2023-04-04T12:23:59.853Z,9.52
2023-04-04T12:26:30.008Z,11.90
2023-04-04T12:28:58.357Z,10.65
2023-04-04T12:31:27.882Z,10.23
2023-04-04T12:33:55.173Z,9.27
2023-04-04T12:36:25.609Z,9.52
2023-04-04T12:38:58.550Z,10.20
2023-04-04T12:41:25.343Z,9.70
2023-04-04T12:43:52.298Z,10.57
2023-04-04T12:46:19.247Z,10.30
2023-04-04T12:48:45.978Z,9.93
2023-04-04T12:51:13.068Z,9.77
2023-04-04T12:53:54.260Z,9.70
2023-04-04T12:56:21.156Z,11.20
2023-04-04T12:58:50.678Z,11.05
2023-04-04T13:01:17.525Z,10.20
2023-04-04T13:03:44.567Z,9.27
2023-04-04T13:06:21.593Z,10.43
2023-04-04T13:08:52.834Z,10.13
2023-04-04T13:11:19.768Z,9.35
2023-04-04T13:16:30.228Z,9.73
2023-04-04T13:18:57.093Z,9.93
2023-04-04T13:21:23.900Z,10.18
2023-04-04T13:23:51.053Z,10.50
2023-04-04T13:26:17.825Z,8.65
2023-04-04T13:28:44.533Z,10.07
2023-04-04T13:31:12.033Z,8.70
2023-04-04T13:33:39.143Z,8.68
2023-04-04T13:36:06.635Z,9.10
2023-04-04T13:38:33.585Z,11.65
2023-04-04T13:41:00.690Z,9.35
2023-04-04T13:43:27.599Z,9.98
2023-04-04T13:45:56.090Z,10.88
2023-04-04T13:48:23.234Z,9.43
2023-04-04T13:50:51.593Z,9.60
2023-04-04T13:53:19.023Z,9.60
2023-04-04T13:56:01.545Z,9.80
2023-04-04T13:58:33.231Z,10.20
2023-04-04T14:01:04.672Z,12.23
2023-04-04T14:03:31.569Z,9.85
2023-04-04T14:06:03.848Z,9.48
2023-04-04T14:08:36.534Z,12.30
2023-04-04T14:11:03.507Z,10.10
2023-04-04T14:13:30.760Z,9.77
2023-04-04T14:16:00.140Z,10.82
2023-04-04T14:18:27.500Z,8.85
2023-04-04T14:20:54.359Z,10.27
2023-04-04T14:23:22.245Z,9.02
2023-04-04T14:25:50.906Z,12.93
2023-04-04T14:28:17.770Z,9.90
2023-04-04T14:30:44.505Z,9.38
2023-04-04T14:33:11.427Z,9.25
2023-04-04T14:35:38.540Z,10.27
2023-04-04T14:38:05.659Z,11.88
2023-04-04T14:40:33.126Z,9.82
2023-04-04T14:43:00.277Z,9.98
2023-04-04T14:45:28.742Z,10.20
2023-04-04T14:47:55.828Z,9.80
2023-04-04T14:50:22.651Z,9.70
2023-04-04T14:52:52.988Z,9.32
2023-04-04T14:55:20.602Z,9.45
2023-04-04T14:58:01.074Z,10.38
2023-04-04T15:00:29.920Z,10.27
2023-04-04T15:02:56.913Z,9.35
2023-04-04T15:05:25.355Z,9.52
2023-04-04T15:07:53.489Z,9.43
2023-04-04T15:10:20.265Z,9.60
2023-04-04T15:12:47.265Z,9.45
2023-04-04T15:15:14.068Z,9.27
2023-04-04T15:17:41.700Z,10.57
2023-04-04T15:20:09.582Z,10.18
2023-04-04T15:22:38.726Z,10.88
2023-04-04T15:25:06.396Z,11.60
2023-04-04T15:27:33.147Z,11.13
2023-04-04T15:29:59.972Z,11.15
2023-04-04T15:32:27.312Z,10.25
2023-04-04T15:34:55.613Z,11.05
2023-04-04T15:37:22.501Z,10.23
2023-04-04T15:39:53.373Z,10.00
2023-04-04T15:42:20.857Z,12.07
2023-04-04T15:44:47.719Z,10.63
2023-04-04T15:47:16.541Z,9.95
2023-04-04T15:49:43.345Z,10.05
2023-04-04T15:52:10.467Z,10.43
2023-04-04T15:54:37.274Z,9.32
2023-04-04T15:57:04.136Z,10.27
2023-04-04T15:59:32.361Z,10.82
2023-04-04T16:01:59.290Z,10.98
2023-04-04T16:04:26.126Z,10.68
2023-04-04T16:06:53.060Z,9.77
2023-04-04T16:09:21.538Z,14.52
2023-04-04T16:11:48.410Z,13.45
2023-04-04T16:14:15.462Z,12.10
2023-04-04T16:16:42.310Z,12.45
2023-04-04T16:19:09.146Z,13.05
2023-04-04T16:21:36.250Z,11.00
2023-04-04T16:24:05.311Z,12.70
2023-04-04T16:26:32.156Z,12.27
2023-04-04T16:28:59.036Z,14.13
2023-04-04T16:31:25.954Z,11.60
2023-04-04T16:33:52.734Z,10.90
2023-04-04T16:36:19.799Z,13.50
2023-04-04T16:38:46.617Z,9.82
2023-04-04T16:41:15.846Z,12.35
2023-04-04T16:43:48.934Z,14.30
2023-04-04T16:46:16.275Z,10.10
2023-04-04T16:48:42.991Z,10.50
2023-04-04T16:51:09.978Z,11.27
2023-04-04T16:53:36.764Z,11.07
2023-04-04T16:56:03.576Z,9.65
2023-04-04T16:58:30.579Z,14.95
2023-04-04T17:00:57.405Z,9.80
2023-04-04T17:03:24.163Z,10.90
2023-04-04T17:05:56.232Z,11.65
2023-04-04T17:08:23.164Z,12.20
2023-04-04T17:10:50.108Z,12.55
2023-04-04T17:13:16.916Z,13.90
2023-04-04T17:15:44.362Z,12.13
2023-04-04T17:18:11.150Z,12.13
2023-04-04T17:20:38.272Z,15.20
2023-04-04T17:23:05.317Z,13.20
2023-04-04T17:25:32.205Z,12.27
2023-04-04T17:27:59.118Z,12.52
2023-04-04T17:30:26.615Z,11.77
2023-04-04T17:32:54.473Z,11.40
2023-04-04T17:35:21.909Z,14.88
2023-04-04T17:37:48.675Z,12.27
2023-04-04T17:40:15.985Z,14.32
2023-04-04T17:42:42.771Z,11.68
2023-04-04T17:45:10.221Z,12.10
2023-04-04T17:47:37.179Z,12.15
2023-04-04T17:50:05.899Z,11.25
2023-04-04T17:52:33.366Z,11.20
2023-04-04T17:55:00.503Z,12.35
2023-04-04T17:57:27.370Z,13.05
2023-04-04T17:59:54.232Z,11.95
2023-04-04T18:02:21.414Z,11.43
2023-04-04T18:04:48.266Z,11.60
2023-04-04T18:07:15.068Z,12.18
2023-04-04T18:09:42.492Z,10.52
2023-04-04T18:12:09.784Z,12.48
2023-04-04T18:14:36.579Z,11.40
2023-04-04T18:17:04.059Z,11.00
2023-04-04T18:19:30.951Z,14.73
2023-04-04T18:22:00.263Z,14.63
2023-04-04T18:24:28.280Z,10.73
2023-04-04T18:26:55.213Z,10.15
2023-04-04T18:29:22.114Z,10.82
2023-04-04T18:31:48.962Z,11.93
2023-04-04T18:34:16.714Z,12.60
2023-04-04T18:36:43.763Z,10.32
2023-04-04T18:39:11.319Z,10.35
2023-04-04T18:41:38.161Z,10.80
2023-04-04T18:44:05.074Z,10.98
2023-04-04T18:46:32.012Z,11.85
2023-04-04T18:48:58.792Z,16.38
2023-04-04T18:51:26.166Z,11.85
2023-04-04T18:53:53.082Z,15.65
2023-04-04T18:56:19.892Z,13.82
2023-04-04T18:58:46.885Z,11.50
2023-04-04T19:01:14.020Z,12.13
2023-04-04T19:03:42.441Z,11.07
2023-04-04T19:06:11.342Z,11.55
2023-04-04T19:08:43.217Z,13.25
2023-04-04T19:11:10.791Z,11.70
2023-04-04T19:13:38.169Z,10.10
2023-04-04T19:16:05.153Z,10.18
2023-04-04T19:18:32.229Z,11.55
2023-04-04T19:20:58.977Z,11.85
2023-04-04T19:23:25.863Z,12.63
2023-04-04T19:25:52.645Z,10.40
2023-04-04T19:28:19.455Z,10.30
2023-04-04T19:30:50.334Z,12.13
2023-04-04T19:33:18.640Z,10.73
2023-04-04T19:35:55.273Z,11.48
2023-04-04T19:38:26.745Z,14.77
2023-04-04T19:40:57.507Z,11.45
2023-04-04T19:43:24.350Z,10.48
2023-04-04T19:45:52.420Z,13.75
2023-04-04T19:48:51.284Z,13.60
2023-04-04T19:51:17.951Z,14.57
2023-04-04T19:53:45.349Z,10.77
2023-04-04T19:56:13.225Z,11.88
2023-04-04T19:58:40.101Z,11.75
2023-04-04T20:01:07.865Z,11.25
2023-04-04T20:03:37.207Z,11.55
2023-04-04T20:06:15.532Z,12.57
2023-04-04T20:08:52.491Z,11.93
2023-04-04T20:11:33.442Z,12.60
2023-04-04T20:14:07.095Z,13.73
2023-04-04T20:16:34.023Z,12.95
2023-04-04T20:19:01.796Z,11.85
2023-04-04T20:21:29.874Z,10.63
2023-04-04T20:23:58.678Z,11.60
2023-04-04T20:26:59.926Z,10.43
2023-04-04T20:29:27.822Z,13.45
2023-04-04T20:31:55.784Z,11.90
2023-04-04T20:34:47.339Z,12.77
2023-04-04T20:37:22.173Z,12.80
2023-04-04T20:39:53.524Z,10.65
2023-04-04T20:42:40.809Z,11.32
2023-04-04T20:45:11.285Z,10.38
2023-04-04T20:47:48.057Z,11.35
2023-04-04T20:50:17.957Z,12.07
2023-04-04T20:52:47.520Z,12.25
2023-04-04T20:55:14.274Z,11.13
2023-04-04T20:57:41.700Z,12.60
2023-04-04T21:00:34.071Z,12.60
2023-04-04T21:03:09.367Z,10.90
2023-04-04T21:05:38.853Z,12.07
2023-04-04T21:08:34.824Z,11.07
2023-04-04T21:11:01.576Z,13.82
2023-04-04T21:13:38.743Z,12.05
2023-04-04T21:16:10.637Z,11.18
2023-04-04T21:18:37.910Z,14.00
2023-04-04T21:21:17.232Z,10.98
2023-04-04T21:23:47.929Z,10.13
2023-04-04T21:26:29.929Z,10.23
2023-04-04T21:28:57.661Z,10.68
2023-04-04T21:31:33.562Z,12.60
2023-04-04T21:34:03.714Z,10.60
2023-04-04T21:36:31.370Z,10.70
2023-04-04T21:38:59.866Z,12.73
2023-04-04T21:41:30.442Z,12.80
2023-04-04T21:43:58.711Z,12.80
2023-04-04T21:46:26.894Z,15.80
2023-04-04T21:48:53.849Z,16.75
2023-04-04T21:51:20.775Z,13.90
2023-04-04T21:53:48.298Z,13.25
2023-04-04T21:56:16.163Z,14.27
2023-04-04T21:58:42.957Z,14.07
2023-04-04T22:01:09.745Z,15.80
2023-04-04T22:03:40.698Z,14.15
2023-04-04T22:06:07.652Z,13.10
2023-04-04T22:08:34.546Z,13.43
2023-04-04T22:11:03.208Z,16.45
2023-04-04T22:13:43.086Z,13.07
2023-04-04T22:16:10.745Z,13.23
2023-04-04T22:18:42.980Z,14.35
2023-04-04T22:21:10.917Z,12.48
2023-04-04T22:23:37.759Z,14.23
2023-04-04T22:26:09.401Z,16.73
2023-04-04T22:28:37.767Z,14.02
2023-04-04T22:31:08.358Z,15.35
2023-04-04T22:33:35.446Z,14.63
2023-04-04T22:36:02.596Z,15.45
2023-04-04T22:38:32.507Z,16.35
2023-04-04T22:40:59.677Z,16.90
2023-04-04T22:43:26.601Z,14.70
2023-04-04T22:45:53.810Z,13.93
2023-04-04T22:48:24.371Z,14.77
2023-04-04T22:50:55.766Z,14.82
2023-04-04T22:53:26.308Z,12.15
2023-04-04T22:55:53.566Z,12.93
2023-04-04T22:58:21.790Z,11.20
2023-04-04T23:00:48.782Z,11.90
2023-04-04T23:03:16.967Z,13.27
2023-04-04T23:05:43.943Z,13.50
2023-04-04T23:08:11.049Z,12.65
2023-04-04T23:10:37.907Z,12.35
2023-04-04T23:13:04.770Z,11.45
2023-04-04T23:15:35.747Z,12.32
2023-04-04T23:18:02.820Z,11.95
2023-04-04T23:20:32.490Z,11.15
2023-04-04T23:22:59.425Z,10.98
2023-04-04T23:25:26.531Z,13.40
2023-04-04T23:27:54.262Z,11.60
2023-04-04T23:30:21.226Z,11.00
2023-04-04T23:32:48.457Z,11.15
2023-04-04T23:35:15.484Z,10.70
2023-04-04T23:37:42.291Z,11.48
2023-04-04T23:40:09.451Z,15.95
2023-04-04T23:42:36.190Z,11.90
2023-04-04T23:45:04.774Z,11.98
2023-04-04T23:47:31.791Z,11.85
2023-04-04T23:49:58.891Z,12.10
2023-04-04T23:52:26.132Z,12.07
2023-04-04T23:54:52.993Z,11.52
2023-04-04T23:57:19.724Z,10.75
2023-04-04T23:59:46.505Z,10.52
